sensor_id;sensor_type;location;lat;lon;timestamp;temperature;humidity
10828;DHT22;5467;59.334;13.512;2023-04-01T00:00:34;-5.00;99.90
10828;DHT22;5467;59.334;13.512;2023-04-01T00:03:01;-5.10;99.90
10828;DHT22;5467;59.334;13.512;2023-04-01T00:05:29;-5.00;99.90
10828;DHT22;5467;59.334;13.512;2023-04-01T00:07:56;-5.00;99.90
10828;DHT22;5467;59.334;13.512;2023-04-01T00:10:23;-5.10;99.90
10828;DHT22;5467;59.334;13.512;2023-04-01T00:12:50;-5.00;99.90
10828;DHT22;5467;59.334;13.512;2023-04-01T00:15:17;-5.00;99.90
10828;DHT22;5467;59.334;13.512;2023-04-01T00:17:46;-4.90;99.90
10828;DHT22;5467;59.334;13.512;2023-04-01T00:20:13;-4.90;99.90
10828;DHT22;5467;59.334;13.512;2023-04-01T00:22:40;-4.80;99.90
10828;DHT22;5467;59.334;13.512;2023-04-01T00:25:08;-4.80;99.90
10828;DHT22;5467;59.334;13.512;2023-04-01T00:27:35;-4.70;99.90
10828;DHT22;5467;59.334;13.512;2023-04-01T00:30:03;-4.60;99.90
10828;DHT22;5467;59.334;13.512;2023-04-01T00:32:30;-4.60;99.90
10828;DHT22;5467;59.334;13.512;2023-04-01T00:34:59;-4.50;99.90
10828;DHT22;5467;59.334;13.512;2023-04-01T00:37:26;-4.60;99.90
10828;DHT22;5467;59.334;13.512;2023-04-01T00:39:53;-4.60;99.90
10828;DHT22;5467;59.334;13.512;2023-04-01T00:42:21;-4.40;99.90
10828;DHT22;5467;59.334;13.512;2023-04-01T00:44:51;-4.40;99.90
10828;DHT22;5467;59.334;13.512;2023-04-01T00:47:19;-4.50;99.90
10828;DHT22;5467;59.334;13.512;2023-04-01T00:49:49;-4.60;99.90
10828;DHT22;5467;59.334;13.512;2023-04-01T00:52:21;-4.60;99.90
10828;DHT22;5467;59.334;13.512;2023-04-01T00:54:52;-4.70;99.90
10828;DHT22;5467;59.334;13.512;2023-04-01T00:57:25;-4.70;99.90
10828;DHT22;5467;59.334;13.512;2023-04-01T00:59:54;-4.70;99.90
10828;DHT22;5467;59.334;13.512;2023-04-01T01:02:22;-4.70;99.90
10828;DHT22;5467;59.334;13.512;2023-04-01T01:04:50;-4.70;99.90
10828;DHT22;5467;59.334;13.512;2023-04-01T01:07:25;-4.70;99.90
10828;DHT22;5467;59.334;13.512;2023-04-01T01:10:00;-4.70;99.90
10828;DHT22;5467;59.334;13.512;2023-04-01T01:12:34;-4.80;99.90
10828;DHT22;5467;59.334;13.512;2023-04-01T01:15:08;-4.80;99.90
10828;DHT22;5467;59.334;13.512;2023-04-01T01:17:50;-4.90;99.90
10828;DHT22;5467;59.334;13.512;2023-04-01T01:20:48;-5.00;99.90
10828;DHT22;5467;59.334;13.512;2023-04-01T01:29:48;-5.10;99.90
10828;DHT22;5467;59.334;13.512;2023-04-01T01:32:38;-5.20;99.90
10828;DHT22;5467;59.334;13.512;2023-04-01T01:35:15;-5.30;99.90
10828;DHT22;5467;59.334;13.512;2023-04-01T01:37:45;-5.30;99.90
10828;DHT22;5467;59.334;13.512;2023-04-01T01:40:14;-5.40;99.90
10828;DHT22;5467;59.334;13.512;2023-04-01T01:42:45;-5.60;99.90
10828;DHT22;5467;59.334;13.512;2023-04-01T01:45:15;-5.60;99.90
10828;DHT22;5467;59.334;13.512;2023-04-01T01:47:44;-5.60;99.90
10828;DHT22;5467;59.334;13.512;2023-04-01T01:50:14;-5.50;99.90
10828;DHT22;5467;59.334;13.512;2023-04-01T01:52:42;-5.40;99.90
10828;DHT22;5467;59.334;13.512;2023-04-01T01:55:28;-5.60;99.90
10828;DHT22;5467;59.334;13.512;2023-04-01T01:57:58;-5.70;99.90
10828;DHT22;5467;59.334;13.512;2023-04-01T02:00:27;-5.80;99.90
10828;DHT22;5467;59.334;13.512;2023-04-01T02:02:56;-5.80;99.90
10828;DHT22;5467;59.334;13.512;2023-04-01T02:05:27;-5.80;99.90
10828;DHT22;5467;59.334;13.512;2023-04-01T02:08:01;-5.80;99.90
10828;DHT22;5467;59.334;13.512;2023-04-01T02:10:34;-5.60;99.90
10828;DHT22;5467;59.334;13.512;2023-04-01T02:13:05;-5.70;99.90
10828;DHT22;5467;59.334;13.512;2023-04-01T02:15:40;-5.80;99.90
10828;DHT22;5467;59.334;13.512;2023-04-01T02:18:09;-5.80;99.90
10828;DHT22;5467;59.334;13.512;2023-04-01T02:20:39;-5.90;99.90
10828;DHT22;5467;59.334;13.512;2023-04-01T02:23:07;-5.90;99.90
10828;DHT22;5467;59.334;13.512;2023-04-01T02:25:37;-5.80;99.90
10828;DHT22;5467;59.334;13.512;2023-04-01T02:28:06;-5.80;99.90
10828;DHT22;5467;59.334;13.512;2023-04-01T02:30:35;-5.80;99.90
10828;DHT22;5467;59.334;13.512;2023-04-01T02:33:04;-5.80;99.90
10828;DHT22;5467;59.334;13.512;2023-04-01T02:35:34;-5.90;99.90
10828;DHT22;5467;59.334;13.512;2023-04-01T02:38:04;-6.00;99.90
10828;DHT22;5467;59.334;13.512;2023-04-01T02:40:45;-6.00;99.90
10828;DHT22;5467;59.334;13.512;2023-04-01T02:43:13;-6.10;99.90
10828;DHT22;5467;59.334;13.512;2023-04-01T02:45:40;-6.40;99.90
10828;DHT22;5467;59.334;13.512;2023-04-01T02:48:07;-6.30;99.90
10828;DHT22;5467;59.334;13.512;2023-04-01T02:50:35;-6.40;99.90
10828;DHT22;5467;59.334;13.512;2023-04-01T02:53:03;-6.40;99.90
10828;DHT22;5467;59.334;13.512;2023-04-01T02:55:31;-6.40;99.90
10828;DHT22;5467;59.334;13.512;2023-04-01T02:57:59;-6.40;99.90
10828;DHT22;5467;59.334;13.512;2023-04-01T03:00:26;-6.40;99.90
10828;DHT22;5467;59.334;13.512;2023-04-01T03:02:53;-6.40;99.90
10828;DHT22;5467;59.334;13.512;2023-04-01T03:05:20;-6.40;99.90
10828;DHT22;5467;59.334;13.512;2023-04-01T03:07:48;-6.30;99.90
10828;DHT22;5467;59.334;13.512;2023-04-01T03:10:17;-6.30;99.90
10828;DHT22;5467;59.334;13.512;2023-04-01T03:12:44;-6.20;99.90
10828;DHT22;5467;59.334;13.512;2023-04-01T03:15:12;-6.10;99.90
10828;DHT22;5467;59.334;13.512;2023-04-01T03:17:40;-6.20;99.90
10828;DHT22;5467;59.334;13.512;2023-04-01T03:20:09;-6.10;99.90
10828;DHT22;5467;59.334;13.512;2023-04-01T03:22:37;-6.10;99.90
10828;DHT22;5467;59.334;13.512;2023-04-01T03:25:06;-6.10;99.90
10828;DHT22;5467;59.334;13.512;2023-04-01T03:27:35;-6.20;99.90
10828;DHT22;5467;59.334;13.512;2023-04-01T03:30:02;-6.10;99.90
10828;DHT22;5467;59.334;13.512;2023-04-01T03:32:29;-6.10;99.90
10828;DHT22;5467;59.334;13.512;2023-04-01T03:34:57;-6.20;99.90
10828;DHT22;5467;59.334;13.512;2023-04-01T03:37:24;-6.10;99.90
10828;DHT22;5467;59.334;13.512;2023-04-01T03:39:51;-6.20;99.90
10828;DHT22;5467;59.334;13.512;2023-04-01T03:42:19;-6.20;99.90
10828;DHT22;5467;59.334;13.512;2023-04-01T03:44:47;-6.10;99.90
10828;DHT22;5467;59.334;13.512;2023-04-01T03:47:15;-6.10;99.90
10828;DHT22;5467;59.334;13.512;2023-04-01T03:49:42;-6.10;99.90
10828;DHT22;5467;59.334;13.512;2023-04-01T03:52:10;-6.20;99.90
10828;DHT22;5467;59.334;13.512;2023-04-01T03:54:37;-6.10;99.90
10828;DHT22;5467;59.334;13.512;2023-04-01T03:57:04;-6.20;99.90
10828;DHT22;5467;59.334;13.512;2023-04-01T03:59:32;-6.30;99.90
10828;DHT22;5467;59.334;13.512;2023-04-01T04:02:00;-6.30;99.90
10828;DHT22;5467;59.334;13.512;2023-04-01T04:04:28;-6.30;99.90
10828;DHT22;5467;59.334;13.512;2023-04-01T04:06:55;-6.30;99.90
10828;DHT22;5467;59.334;13.512;2023-04-01T04:09:23;-6.30;99.90
10828;DHT22;5467;59.334;13.512;2023-04-01T04:11:50;-6.30;99.90
10828;DHT22;5467;59.334;13.512;2023-04-01T04:14:17;-6.30;99.90
10828;DHT22;5467;59.334;13.512;2023-04-01T04:16:44;-6.20;99.90
10828;DHT22;5467;59.334;13.512;2023-04-01T04:19:13;-6.20;99.90
10828;DHT22;5467;59.334;13.512;2023-04-01T04:21:40;-6.30;99.90
10828;DHT22;5467;59.334;13.512;2023-04-01T04:24:08;-6.30;99.90
10828;DHT22;5467;59.334;13.512;2023-04-01T04:26:36;-6.10;99.90
10828;DHT22;5467;59.334;13.512;2023-04-01T04:29:03;-6.20;99.90
10828;DHT22;5467;59.334;13.512;2023-04-01T04:31:30;-6.20;99.90
10828;DHT22;5467;59.334;13.512;2023-04-01T04:33:59;-6.20;99.90
10828;DHT22;5467;59.334;13.512;2023-04-01T04:36:28;-6.20;99.90
10828;DHT22;5467;59.334;13.512;2023-04-01T04:38:55;-6.10;99.90
10828;DHT22;5467;59.334;13.512;2023-04-01T04:41:23;-6.10;99.90
10828;DHT22;5467;59.334;13.512;2023-04-01T04:43:52;-6.10;99.90
10828;DHT22;5467;59.334;13.512;2023-04-01T04:46:20;-6.00;99.90
10828;DHT22;5467;59.334;13.512;2023-04-01T04:48:48;-5.90;99.90
10828;DHT22;5467;59.334;13.512;2023-04-01T04:51:15;-6.00;99.90
10828;DHT22;5467;59.334;13.512;2023-04-01T04:53:44;-5.90;99.90
10828;DHT22;5467;59.334;13.512;2023-04-01T04:56:12;-6.00;99.90
10828;DHT22;5467;59.334;13.512;2023-04-01T04:58:39;-6.10;99.90
10828;DHT22;5467;59.334;13.512;2023-04-01T05:01:08;-6.10;99.90
10828;DHT22;5467;59.334;13.512;2023-04-01T05:03:36;-6.00;99.90
10828;DHT22;5467;59.334;13.512;2023-04-01T05:06:05;-5.90;99.90
10828;DHT22;5467;59.334;13.512;2023-04-01T05:08:32;-5.60;99.90
10828;DHT22;5467;59.334;13.512;2023-04-01T05:11:01;-5.20;99.90
10828;DHT22;5467;59.334;13.512;2023-04-01T05:13:28;-4.90;99.90
10828;DHT22;5467;59.334;13.512;2023-04-01T05:15:56;-4.60;99.90
10828;DHT22;5467;59.334;13.512;2023-04-01T05:18:23;-4.50;99.90
10828;DHT22;5467;59.334;13.512;2023-04-01T05:20:52;-4.40;99.90
10828;DHT22;5467;59.334;13.512;2023-04-01T05:23:20;-4.30;99.90
10828;DHT22;5467;59.334;13.512;2023-04-01T05:25:47;-4.40;99.90
10828;DHT22;5467;59.334;13.512;2023-04-01T05:28:17;-4.40;99.90
10828;DHT22;5467;59.334;13.512;2023-04-01T05:30:44;-4.60;99.90
10828;DHT22;5467;59.334;13.512;2023-04-01T05:33:12;-4.70;99.90
10828;DHT22;5467;59.334;13.512;2023-04-01T05:35:41;-4.70;99.90
10828;DHT22;5467;59.334;13.512;2023-04-01T05:38:08;-4.70;99.90
10828;DHT22;5467;59.334;13.512;2023-04-01T05:40:35;-4.70;99.90
10828;DHT22;5467;59.334;13.512;2023-04-01T05:43:03;-4.70;99.90
10828;DHT22;5467;59.334;13.512;2023-04-01T05:45:31;-4.70;99.90
10828;DHT22;5467;59.334;13.512;2023-04-01T05:47:59;-4.70;99.90
10828;DHT22;5467;59.334;13.512;2023-04-01T05:50:26;-4.70;99.90
10828;DHT22;5467;59.334;13.512;2023-04-01T05:52:53;-4.50;99.90
10828;DHT22;5467;59.334;13.512;2023-04-01T05:55:20;-4.20;99.90
10828;DHT22;5467;59.334;13.512;2023-04-01T05:57:47;-3.80;99.90
10828;DHT22;5467;59.334;13.512;2023-04-01T06:00:16;-3.20;99.90
10828;DHT22;5467;59.334;13.512;2023-04-01T06:02:44;-2.50;99.90
10828;DHT22;5467;59.334;13.512;2023-04-01T06:05:15;-1.90;99.90
10828;DHT22;5467;59.334;13.512;2023-04-01T06:07:43;-1.50;99.90
10828;DHT22;5467;59.334;13.512;2023-04-01T06:10:14;-1.30;99.90
10828;DHT22;5467;59.334;13.512;2023-04-01T06:12:48;-1.10;99.90
10828;DHT22;5467;59.334;13.512;2023-04-01T06:15:28;-1.00;99.90
10828;DHT22;5467;59.334;13.512;2023-04-01T06:18:31;-0.90;99.90
10828;DHT22;5467;59.334;13.512;2023-04-01T06:21:14;-1.10;99.90
10828;DHT22;5467;59.334;13.512;2023-04-01T06:23:57;-1.20;99.90
10828;DHT22;5467;59.334;13.512;2023-04-01T06:26:36;-1.30;99.90
10828;DHT22;5467;59.334;13.512;2023-04-01T06:29:28;-1.60;99.90
10828;DHT22;5467;59.334;13.512;2023-04-01T06:32:13;-1.50;99.90
10828;DHT22;5467;59.334;13.512;2023-04-01T06:35:12;-1.40;99.90
10828;DHT22;5467;59.334;13.512;2023-04-01T06:37:55;-1.20;99.90
10828;DHT22;5467;59.334;13.512;2023-04-01T06:43:38;-1.30;99.90
10828;DHT22;5467;59.334;13.512;2023-04-01T06:46:13;-1.30;99.90
10828;DHT22;5467;59.334;13.512;2023-04-01T06:48:54;-1.40;99.90
10828;DHT22;5467;59.334;13.512;2023-04-01T06:51:36;-1.30;99.90
10828;DHT22;5467;59.334;13.512;2023-04-01T06:54:08;-1.20;99.90
10828;DHT22;5467;59.334;13.512;2023-04-01T06:56:38;-1.20;99.90
10828;DHT22;5467;59.334;13.512;2023-04-01T06:59:12;-1.20;99.90
10828;DHT22;5467;59.334;13.512;2023-04-01T07:01:41;-1.20;99.90
10828;DHT22;5467;59.334;13.512;2023-04-01T07:04:13;-1.20;99.90
10828;DHT22;5467;59.334;13.512;2023-04-01T07:06:46;-1.10;99.90
10828;DHT22;5467;59.334;13.512;2023-04-01T07:09:16;-1.10;99.90
10828;DHT22;5467;59.334;13.512;2023-04-01T07:11:45;-1.00;99.90
10828;DHT22;5467;59.334;13.512;2023-04-01T07:14:17;-1.20;99.90
10828;DHT22;5467;59.334;13.512;2023-04-01T07:16:51;-1.00;99.90
10828;DHT22;5467;59.334;13.512;2023-04-01T07:19:22;-0.90;99.90
10828;DHT22;5467;59.334;13.512;2023-04-01T07:21:56;-0.90;99.90
10828;DHT22;5467;59.334;13.512;2023-04-01T07:24:27;-0.70;99.90
10828;DHT22;5467;59.334;13.512;2023-04-01T07:26:56;-0.70;99.90
10828;DHT22;5467;59.334;13.512;2023-04-01T07:29:25;-0.60;99.90
10828;DHT22;5467;59.334;13.512;2023-04-01T07:32:09;-0.60;99.90
10828;DHT22;5467;59.334;13.512;2023-04-01T07:34:49;-0.50;99.90
10828;DHT22;5467;59.334;13.512;2023-04-01T07:37:24;-0.40;99.90
10828;DHT22;5467;59.334;13.512;2023-04-01T07:40:00;-0.30;99.90
10828;DHT22;5467;59.334;13.512;2023-04-01T07:42:34;-0.30;99.90
10828;DHT22;5467;59.334;13.512;2023-04-01T07:45:13;-0.30;99.90
10828;DHT22;5467;59.334;13.512;2023-04-01T07:47:53;-0.30;99.90
10828;DHT22;5467;59.334;13.512;2023-04-01T07:50:27;-0.20;99.90
10828;DHT22;5467;59.334;13.512;2023-04-01T07:53:04;0.00;99.90
10828;DHT22;5467;59.334;13.512;2023-04-01T07:55:37;0.10;99.90
10828;DHT22;5467;59.334;13.512;2023-04-01T07:58:12;0.30;99.90
10828;DHT22;5467;59.334;13.512;2023-04-01T08:00:47;0.60;99.90
10828;DHT22;5467;59.334;13.512;2023-04-01T08:03:30;0.90;99.90
10828;DHT22;5467;59.334;13.512;2023-04-01T08:06:00;1.10;99.90
10828;DHT22;5467;59.334;13.512;2023-04-01T08:08:41;1.30;99.90
10828;DHT22;5467;59.334;13.512;2023-04-01T08:11:16;1.60;99.90
10828;DHT22;5467;59.334;13.512;2023-04-01T08:13:53;1.70;99.90
10828;DHT22;5467;59.334;13.512;2023-04-01T08:16:27;2.00;99.90
10828;DHT22;5467;59.334;13.512;2023-04-01T08:19:02;2.20;99.90
10828;DHT22;5467;59.334;13.512;2023-04-01T08:21:36;2.50;99.90
10828;DHT22;5467;59.334;13.512;2023-04-01T08:24:13;2.00;99.90
10828;DHT22;5467;59.334;13.512;2023-04-01T08:26:46;2.30;99.90
10828;DHT22;5467;59.334;13.512;2023-04-01T08:29:19;2.40;99.90
10828;DHT22;5467;59.334;13.512;2023-04-01T08:31:51;2.70;99.90
10828;DHT22;5467;59.334;13.512;2023-04-01T08:34:23;3.20;99.90
10828;DHT22;5467;59.334;13.512;2023-04-01T08:36:53;3.20;99.90
10828;DHT22;5467;59.334;13.512;2023-04-01T08:39:29;3.30;99.90
10828;DHT22;5467;59.334;13.512;2023-04-01T08:42:15;3.50;99.90
10828;DHT22;5467;59.334;13.512;2023-04-01T08:45:15;3.90;99.90
10828;DHT22;5467;59.334;13.512;2023-04-01T08:47:54;4.40;99.90
10828;DHT22;5467;59.334;13.512;2023-04-01T08:51:01;4.10;99.90
10828;DHT22;5467;59.334;13.512;2023-04-01T08:53:44;3.90;99.90
10828;DHT22;5467;59.334;13.512;2023-04-01T08:56:21;4.20;99.90
10828;DHT22;5467;59.334;13.512;2023-04-01T08:59:13;4.70;99.90
10828;DHT22;5467;59.334;13.512;2023-04-01T09:02:15;5.00;99.90
10828;DHT22;5467;59.334;13.512;2023-04-01T09:05:03;4.80;99.90
10828;DHT22;5467;59.334;13.512;2023-04-01T09:07:40;5.30;99.90
10828;DHT22;5467;59.334;13.512;2023-04-01T09:11:04;5.60;99.90
10828;DHT22;5467;59.334;13.512;2023-04-01T09:13:54;5.80;99.90
10828;DHT22;5467;59.334;13.512;2023-04-01T09:16:42;6.00;99.90
10828;DHT22;5467;59.334;13.512;2023-04-01T09:19:20;6.00;99.90
10828;DHT22;5467;59.334;13.512;2023-04-01T09:22:21;5.80;99.90
10828;DHT22;5467;59.334;13.512;2023-04-01T09:25:15;6.10;99.90
10828;DHT22;5467;59.334;13.512;2023-04-01T09:27:56;5.90;99.90
10828;DHT22;5467;59.334;13.512;2023-04-01T09:30:54;5.70;99.90
10828;DHT22;5467;59.334;13.512;2023-04-01T09:34:05;5.70;99.90
10828;DHT22;5467;59.334;13.512;2023-04-01T09:36:45;6.00;99.90
10828;DHT22;5467;59.334;13.512;2023-04-01T09:39:25;5.90;99.90
10828;DHT22;5467;59.334;13.512;2023-04-01T09:42:27;5.90;99.90
10828;DHT22;5467;59.334;13.512;2023-04-01T09:44:59;6.00;99.90
10828;DHT22;5467;59.334;13.512;2023-04-01T09:47:40;6.00;99.90
10828;DHT22;5467;59.334;13.512;2023-04-01T09:50:26;6.40;99.90
10828;DHT22;5467;59.334;13.512;2023-04-01T09:53:04;6.40;99.90
10828;DHT22;5467;59.334;13.512;2023-04-01T09:56:17;6.30;99.90
10828;DHT22;5467;59.334;13.512;2023-04-01T10:02:28;6.40;99.90
10828;DHT22;5467;59.334;13.512;2023-04-01T10:05:32;6.20;99.90
10828;DHT22;5467;59.334;13.512;2023-04-01T10:14:23;5.90;99.90
10828;DHT22;5467;59.334;13.512;2023-04-01T10:17:27;5.70;99.90
10828;DHT22;5467;59.334;13.512;2023-04-01T10:29:25;6.40;99.90
10828;DHT22;5467;59.334;13.512;2023-04-01T10:35:39;6.30;99.90
10828;DHT22;5467;59.334;13.512;2023-04-01T10:41:58;6.20;99.90
10828;DHT22;5467;59.334;13.512;2023-04-01T10:45:14;6.30;99.90
10828;DHT22;5467;59.334;13.512;2023-04-01T10:48:28;6.60;99.90
10828;DHT22;5467;59.334;13.512;2023-04-01T10:51:18;6.40;99.90
10828;DHT22;5467;59.334;13.512;2023-04-01T10:56:55;6.30;99.90
10828;DHT22;5467;59.334;13.512;2023-04-01T10:59:52;6.30;99.90
10828;DHT22;5467;59.334;13.512;2023-04-01T11:15:37;6.40;99.90
10828;DHT22;5467;59.334;13.512;2023-04-01T11:21:46;6.40;99.90
10828;DHT22;5467;59.334;13.512;2023-04-01T11:27:43;6.40;99.90
10828;DHT22;5467;59.334;13.512;2023-04-01T11:30:20;6.30;99.90
10828;DHT22;5467;59.334;13.512;2023-04-01T11:32:53;6.30;99.90
10828;DHT22;5467;59.334;13.512;2023-04-01T11:35:48;6.40;99.90
10828;DHT22;5467;59.334;13.512;2023-04-01T11:38:28;6.30;99.90
10828;DHT22;5467;59.334;13.512;2023-04-01T11:41:08;6.40;99.90
10828;DHT22;5467;59.334;13.512;2023-04-01T11:43:43;6.50;99.90
10828;DHT22;5467;59.334;13.512;2023-04-01T11:46:16;6.50;99.90
10828;DHT22;5467;59.334;13.512;2023-04-01T11:48:58;6.50;99.90
10828;DHT22;5467;59.334;13.512;2023-04-01T11:51:56;6.50;99.90
10828;DHT22;5467;59.334;13.512;2023-04-01T11:54:41;6.50;99.90
10828;DHT22;5467;59.334;13.512;2023-04-01T11:57:40;6.50;99.90
10828;DHT22;5467;59.334;13.512;2023-04-01T12:00:37;6.40;99.90
10828;DHT22;5467;59.334;13.512;2023-04-01T12:03:27;6.70;99.90
10828;DHT22;5467;59.334;13.512;2023-04-01T12:06:05;6.60;99.90
10828;DHT22;5467;59.334;13.512;2023-04-01T12:08:41;6.60;99.90
10828;DHT22;5467;59.334;13.512;2023-04-01T12:11:17;6.80;99.90
10828;DHT22;5467;59.334;13.512;2023-04-01T12:13:52;7.00;99.90
10828;DHT22;5467;59.334;13.512;2023-04-01T12:16:41;7.10;99.90
10828;DHT22;5467;59.334;13.512;2023-04-01T12:19:17;7.40;99.90
10828;DHT22;5467;59.334;13.512;2023-04-01T12:21:56;7.50;99.90
10828;DHT22;5467;59.334;13.512;2023-04-01T12:24:45;7.50;99.90
10828;DHT22;5467;59.334;13.512;2023-04-01T12:27:44;7.30;99.90
10828;DHT22;5467;59.334;13.512;2023-04-01T12:30:41;7.10;99.90
10828;DHT22;5467;59.334;13.512;2023-04-01T12:33:48;6.90;99.90
10828;DHT22;5467;59.334;13.512;2023-04-01T12:36:30;6.80;99.90
10828;DHT22;5467;59.334;13.512;2023-04-01T12:39:29;6.90;99.90
10828;DHT22;5467;59.334;13.512;2023-04-01T12:42:05;6.90;99.90
10828;DHT22;5467;59.334;13.512;2023-04-01T12:44:55;6.70;99.90
10828;DHT22;5467;59.334;13.512;2023-04-01T12:47:45;6.80;99.90
10828;DHT22;5467;59.334;13.512;2023-04-01T12:50:28;6.90;99.90
10828;DHT22;5467;59.334;13.512;2023-04-01T12:53:11;6.80;99.90
10828;DHT22;5467;59.334;13.512;2023-04-01T12:55:44;7.00;99.90
10828;DHT22;5467;59.334;13.512;2023-04-01T13:01:43;7.40;99.90
10828;DHT22;5467;59.334;13.512;2023-04-01T13:04:40;7.40;99.90
10828;DHT22;5467;59.334;13.512;2023-04-01T13:07:39;7.40;99.90
10828;DHT22;5467;59.334;13.512;2023-04-01T13:10:19;7.50;99.90
10828;DHT22;5467;59.334;13.512;2023-04-01T13:13:00;7.60;99.90
10828;DHT22;5467;59.334;13.512;2023-04-01T13:15:36;7.40;99.90
10828;DHT22;5467;59.334;13.512;2023-04-01T13:18:15;7.60;99.90
10828;DHT22;5467;59.334;13.512;2023-04-01T13:20:51;7.70;99.90
10828;DHT22;5467;59.334;13.512;2023-04-01T13:23:33;7.90;99.90
10828;DHT22;5467;59.334;13.512;2023-04-01T13:26:10;8.10;99.90
10828;DHT22;5467;59.334;13.512;2023-04-01T13:28:44;8.00;99.90
10828;DHT22;5467;59.334;13.512;2023-04-01T13:31:29;7.90;99.90
10828;DHT22;5467;59.334;13.512;2023-04-01T13:34:13;8.10;99.90
10828;DHT22;5467;59.334;13.512;2023-04-01T13:36:54;7.90;99.90
10828;DHT22;5467;59.334;13.512;2023-04-01T13:39:36;7.70;99.90
10828;DHT22;5467;59.334;13.512;2023-04-01T13:42:14;7.70;99.90
10828;DHT22;5467;59.334;13.512;2023-04-01T13:44:48;7.60;99.90
10828;DHT22;5467;59.334;13.512;2023-04-01T13:56:54;7.50;99.90
10828;DHT22;5467;59.334;13.512;2023-04-01T13:59:59;7.40;99.90
10828;DHT22;5467;59.334;13.512;2023-04-01T14:03:03;7.40;99.90
10828;DHT22;5467;59.334;13.512;2023-04-01T14:05:56;7.90;99.90
10828;DHT22;5467;59.334;13.512;2023-04-01T14:08:40;7.50;99.90
10828;DHT22;5467;59.334;13.512;2023-04-01T14:11:17;7.40;99.90
10828;DHT22;5467;59.334;13.512;2023-04-01T14:13:56;7.50;99.90
10828;DHT22;5467;59.334;13.512;2023-04-01T14:16:55;7.60;99.90
10828;DHT22;5467;59.334;13.512;2023-04-01T14:19:35;7.60;99.90
10828;DHT22;5467;59.334;13.512;2023-04-01T14:22:16;7.70;99.90
10828;DHT22;5467;59.334;13.512;2023-04-01T14:25:04;7.70;99.90
10828;DHT22;5467;59.334;13.512;2023-04-01T14:27:44;7.60;99.90
10828;DHT22;5467;59.334;13.512;2023-04-01T14:30:27;7.40;99.90
10828;DHT22;5467;59.334;13.512;2023-04-01T14:33:10;7.60;99.90
10828;DHT22;5467;59.334;13.512;2023-04-01T14:35:48;7.60;99.90
10828;DHT22;5467;59.334;13.512;2023-04-01T14:38:39;7.50;99.90
10828;DHT22;5467;59.334;13.512;2023-04-01T14:41:19;7.30;99.90
10828;DHT22;5467;59.334;13.512;2023-04-01T14:43:58;7.40;99.90
10828;DHT22;5467;59.334;13.512;2023-04-01T14:49:32;7.60;99.90
10828;DHT22;5467;59.334;13.512;2023-04-01T14:52:09;7.70;99.90
10828;DHT22;5467;59.334;13.512;2023-04-01T14:54:39;7.80;99.90
10828;DHT22;5467;59.334;13.512;2023-04-01T14:57:11;7.50;99.90
10828;DHT22;5467;59.334;13.512;2023-04-01T14:59:40;7.20;99.90
10828;DHT22;5467;59.334;13.512;2023-04-01T15:02:27;7.10;99.90
10828;DHT22;5467;59.334;13.512;2023-04-01T15:05:10;7.10;99.90
10828;DHT22;5467;59.334;13.512;2023-04-01T15:07:51;7.20;99.90
10828;DHT22;5467;59.334;13.512;2023-04-01T15:10:56;7.20;99.90
10828;DHT22;5467;59.334;13.512;2023-04-01T15:13:49;7.10;99.90
10828;DHT22;5467;59.334;13.512;2023-04-01T15:16:23;7.20;99.90
10828;DHT22;5467;59.334;13.512;2023-04-01T15:19:00;7.30;99.90
10828;DHT22;5467;59.334;13.512;2023-04-01T15:21:44;7.30;99.90
10828;DHT22;5467;59.334;13.512;2023-04-01T15:24:20;7.20;99.90
10828;DHT22;5467;59.334;13.512;2023-04-01T15:27:03;7.10;99.90
10828;DHT22;5467;59.334;13.512;2023-04-01T15:29:47;7.00;99.90
10828;DHT22;5467;59.334;13.512;2023-04-01T15:32:19;7.00;99.90
10828;DHT22;5467;59.334;13.512;2023-04-01T15:34:54;6.90;99.90
10828;DHT22;5467;59.334;13.512;2023-04-01T15:37:32;6.80;99.90
10828;DHT22;5467;59.334;13.512;2023-04-01T15:40:14;7.10;99.90
10828;DHT22;5467;59.334;13.512;2023-04-01T15:42:53;6.80;99.90
10828;DHT22;5467;59.334;13.512;2023-04-01T15:45:33;6.70;99.90
10828;DHT22;5467;59.334;13.512;2023-04-01T15:48:17;6.80;99.90
10828;DHT22;5467;59.334;13.512;2023-04-01T15:50:57;6.80;99.90
10828;DHT22;5467;59.334;13.512;2023-04-01T15:53:39;6.70;99.90
10828;DHT22;5467;59.334;13.512;2023-04-01T15:56:19;6.70;99.90
10828;DHT22;5467;59.334;13.512;2023-04-01T15:59:00;6.80;99.90
10828;DHT22;5467;59.334;13.512;2023-04-01T16:01:38;6.90;99.90
10828;DHT22;5467;59.334;13.512;2023-04-01T16:04:20;6.90;99.90
10828;DHT22;5467;59.334;13.512;2023-04-01T16:07:02;6.80;99.90
10828;DHT22;5467;59.334;13.512;2023-04-01T16:09:49;6.80;99.90
10828;DHT22;5467;59.334;13.512;2023-04-01T16:12:35;6.70;99.90
10828;DHT22;5467;59.334;13.512;2023-04-01T16:15:13;6.60;99.90
10828;DHT22;5467;59.334;13.512;2023-04-01T16:18:11;6.70;99.90
10828;DHT22;5467;59.334;13.512;2023-04-01T16:20:46;6.70;99.90
10828;DHT22;5467;59.334;13.512;2023-04-01T16:23:22;6.60;99.90
10828;DHT22;5467;59.334;13.512;2023-04-01T16:26:01;6.50;99.90
10828;DHT22;5467;59.334;13.512;2023-04-01T16:28:32;6.60;99.90
10828;DHT22;5467;59.334;13.512;2023-04-01T16:31:05;6.50;99.90
10828;DHT22;5467;59.334;13.512;2023-04-01T16:33:41;6.50;99.90
10828;DHT22;5467;59.334;13.512;2023-04-01T16:36:21;6.40;99.90
10828;DHT22;5467;59.334;13.512;2023-04-01T16:38:55;6.30;99.90
10828;DHT22;5467;59.334;13.512;2023-04-01T16:41:29;6.30;99.90
10828;DHT22;5467;59.334;13.512;2023-04-01T16:44:10;6.20;99.90
10828;DHT22;5467;59.334;13.512;2023-04-01T16:46:41;6.10;99.90
10828;DHT22;5467;59.334;13.512;2023-04-01T16:49:32;6.10;99.90
10828;DHT22;5467;59.334;13.512;2023-04-01T16:52:13;6.00;99.90
10828;DHT22;5467;59.334;13.512;2023-04-01T16:54:47;5.90;99.90
10828;DHT22;5467;59.334;13.512;2023-04-01T16:57:21;5.90;99.90
10828;DHT22;5467;59.334;13.512;2023-04-01T16:59:56;5.90;99.90
10828;DHT22;5467;59.334;13.512;2023-04-01T17:02:30;5.80;99.90
10828;DHT22;5467;59.334;13.512;2023-04-01T17:05:01;5.70;99.90
10828;DHT22;5467;59.334;13.512;2023-04-01T17:07:38;5.70;99.90
10828;DHT22;5467;59.334;13.512;2023-04-01T17:13:34;5.30;99.90
10828;DHT22;5467;59.334;13.512;2023-04-01T17:16:20;5.10;99.90
10828;DHT22;5467;59.334;13.512;2023-04-01T17:18:58;5.00;99.90
10828;DHT22;5467;59.334;13.512;2023-04-01T17:21:37;4.80;99.90
10828;DHT22;5467;59.334;13.512;2023-04-01T17:24:13;4.60;99.90
10828;DHT22;5467;59.334;13.512;2023-04-01T17:26:47;4.30;99.90
10828;DHT22;5467;59.334;13.512;2023-04-01T17:29:23;4.20;99.90
10828;DHT22;5467;59.334;13.512;2023-04-01T17:32:01;4.10;99.90
10828;DHT22;5467;59.334;13.512;2023-04-01T17:34:42;3.90;99.90
10828;DHT22;5467;59.334;13.512;2023-04-01T17:37:28;3.80;99.90
10828;DHT22;5467;59.334;13.512;2023-04-01T17:40:12;3.60;99.90
10828;DHT22;5467;59.334;13.512;2023-04-01T17:42:46;3.50;99.90
10828;DHT22;5467;59.334;13.512;2023-04-01T17:45:21;3.30;99.90
10828;DHT22;5467;59.334;13.512;2023-04-01T17:48:03;3.10;99.90
10828;DHT22;5467;59.334;13.512;2023-04-01T17:50:51;3.00;99.90
10828;DHT22;5467;59.334;13.512;2023-04-01T17:53:28;2.90;99.90
10828;DHT22;5467;59.334;13.512;2023-04-01T17:56:14;2.60;99.90
10828;DHT22;5467;59.334;13.512;2023-04-01T17:58:46;2.40;99.90